createdAt,value
2022-12-11T00:00:01.907Z,2.70
2022-12-11T00:00:26.462Z,3.42
2022-12-11T00:00:49.197Z,2.88
2022-12-11T00:01:12.294Z,2.75
2022-12-11T00:01:33.936Z,2.42
2022-12-11T00:01:55.702Z,2.97
2022-12-11T00:02:18.396Z,2.75
2022-12-11T00:02:40.061Z,2.10
2022-12-11T00:03:01.652Z,2.72
2022-12-11T00:03:23.338Z,3.10
2022-12-11T00:03:46.414Z,2.70
2022-12-11T00:04:08.035Z,2.97
2022-12-11T00:04:29.604Z,3.13
2022-12-11T00:04:51.179Z,2.80
2022-12-11T00:05:13.762Z,2.63
2022-12-11T00:05:35.476Z,3.03
2022-12-11T00:05:57.302Z,2.53
2022-12-11T00:06:21.183Z,2.90
2022-12-11T00:06:42.837Z,2.30
2022-12-11T00:07:05.442Z,2.92
2022-12-11T00:07:27.036Z,3.65
2022-12-11T00:07:48.705Z,3.17
2022-12-11T00:08:10.630Z,3.10
2022-12-11T00:08:33.290Z,2.85
2022-12-11T00:08:55.302Z,2.38
2022-12-11T00:09:17.590Z,2.22
2022-12-11T00:09:40.347Z,2.67
2022-12-11T00:10:02.264Z,3.33
2022-12-11T00:10:23.897Z,3.20
2022-12-11T00:10:48.866Z,2.88
2022-12-11T00:11:13.860Z,2.78
2022-12-11T00:11:35.532Z,2.67
2022-12-11T00:11:57.657Z,2.10
2022-12-11T00:12:19.250Z,2.22
2022-12-11T00:12:41.821Z,2.53
2022-12-11T00:13:03.438Z,2.78
2022-12-11T00:13:26.561Z,2.88
2022-12-11T00:13:48.273Z,3.25
2022-12-11T00:14:10.901Z,2.42
2022-12-11T00:14:33.079Z,2.88
2022-12-11T00:14:54.685Z,3.40
2022-12-11T00:15:17.676Z,2.65
2022-12-11T00:15:39.240Z,2.33
2022-12-11T00:16:02.108Z,2.40
2022-12-11T00:16:26.927Z,3.15
2022-12-11T00:16:49.013Z,3.67
2022-12-11T00:17:10.652Z,2.72
2022-12-11T00:17:33.253Z,2.78
2022-12-11T00:17:55.449Z,3.60
2022-12-11T00:18:17.220Z,2.75
2022-12-11T00:18:39.188Z,3.00
2022-12-11T00:19:02.079Z,3.08
2022-12-11T00:19:23.779Z,2.72
2022-12-11T00:19:45.426Z,2.90
2022-12-11T00:20:08.000Z,2.93
2022-12-11T00:20:30.546Z,2.85
2022-12-11T00:20:52.146Z,3.13
2022-12-11T00:21:14.790Z,3.33
2022-12-11T00:21:37.492Z,3.47
2022-12-11T00:21:59.111Z,3.03
2022-12-11T00:22:20.695Z,2.40
2022-12-11T00:22:42.305Z,2.55
2022-12-11T00:23:05.800Z,3.22
2022-12-11T00:23:27.487Z,3.10
2022-12-11T00:23:49.057Z,3.58
2022-12-11T00:24:10.847Z,3.25
2022-12-11T00:24:33.507Z,2.85
2022-12-11T00:24:55.191Z,2.80
2022-12-11T00:25:17.021Z,3.20
2022-12-11T00:25:42.442Z,3.72
2022-12-11T00:26:06.690Z,3.13
2022-12-11T00:26:28.337Z,3.60
2022-12-11T00:26:50.121Z,3.42
2022-12-11T00:27:12.726Z,3.75
2022-12-11T00:27:34.352Z,3.05
2022-12-11T00:27:55.940Z,3.40
2022-12-11T00:28:18.749Z,3.15
2022-12-11T00:28:40.780Z,2.47
2022-12-11T00:29:03.511Z,2.60
2022-12-11T00:29:25.116Z,3.03
2022-12-11T00:29:46.715Z,2.50
2022-12-11T00:30:10.433Z,3.90
2022-12-11T00:30:33.445Z,3.65
2022-12-11T00:30:55.362Z,3.22
2022-12-11T00:31:18.898Z,2.97
2022-12-11T00:31:42.461Z,3.20
2022-12-11T00:32:04.336Z,3.40
2022-12-11T00:32:28.321Z,3.65
2022-12-11T00:32:51.480Z,4.10
2022-12-11T00:33:15.378Z,3.85
2022-12-11T00:33:37.118Z,3.88
2022-12-11T00:33:58.764Z,3.15
2022-12-11T00:34:20.377Z,3.40
2022-12-11T00:34:42.081Z,3.15
2022-12-11T00:35:05.112Z,3.75
2022-12-11T00:35:26.774Z,2.80
2022-12-11T00:35:48.534Z,3.33
2022-12-11T00:36:12.512Z,3.10
2022-12-11T00:36:35.289Z,3.88
2022-12-11T00:36:59.061Z,3.42
2022-12-11T00:37:20.779Z,2.90
2022-12-11T00:37:43.536Z,3.15
2022-12-11T00:38:05.201Z,2.60
2022-12-11T00:38:27.418Z,2.85
2022-12-11T00:38:49.864Z,2.83
2022-12-11T00:39:12.445Z,3.33
2022-12-11T00:39:34.024Z,3.47
2022-12-11T00:39:55.629Z,3.38
2022-12-11T00:40:17.378Z,3.60
2022-12-11T00:40:39.029Z,3.03
2022-12-11T00:41:00.683Z,2.92
2022-12-11T00:41:23.477Z,3.03
2022-12-11T00:41:45.151Z,4.25
2022-12-11T00:42:07.623Z,3.90
2022-12-11T00:42:29.294Z,2.75
2022-12-11T00:42:51.873Z,2.70
2022-12-11T00:43:14.449Z,3.25
2022-12-11T00:43:36.110Z,2.70
2022-12-11T00:43:57.809Z,2.92
2022-12-11T00:44:20.444Z,3.22
2022-12-11T00:44:42.026Z,3.65
2022-12-11T00:45:04.227Z,4.03
2022-12-11T00:45:25.853Z,3.15
2022-12-11T00:45:49.802Z,3.80
2022-12-11T00:46:12.185Z,2.88
2022-12-11T00:46:33.889Z,3.38
2022-12-11T00:46:55.487Z,3.05
2022-12-11T00:47:18.069Z,3.67
2022-12-11T00:47:40.453Z,3.47
2022-12-11T00:48:02.005Z,3.10
2022-12-11T00:48:24.303Z,2.47
2022-12-11T00:48:46.203Z,2.72
2022-12-11T00:49:08.727Z,2.85
2022-12-11T00:49:30.311Z,3.13
2022-12-11T00:49:52.130Z,2.92
2022-12-11T00:50:13.746Z,2.80
2022-12-11T00:50:37.397Z,3.15
2022-12-11T00:50:59.235Z,2.85
2022-12-11T00:51:20.901Z,2.88
2022-12-11T00:51:43.454Z,3.63
2022-12-11T00:52:05.037Z,2.95
2022-12-11T00:52:26.678Z,2.63
2022-12-11T00:52:48.313Z,3.60
2022-12-11T00:53:09.961Z,3.30
2022-12-11T00:53:32.866Z,3.78
2022-12-11T00:53:54.404Z,3.28
2022-12-11T00:54:16.065Z,3.28
2022-12-11T00:54:37.618Z,3.72
2022-12-11T00:55:00.253Z,3.15
2022-12-11T00:55:21.839Z,2.80
2022-12-11T00:55:44.083Z,2.83
2022-12-11T00:56:11.243Z,2.80
2022-12-11T00:56:33.870Z,3.63
2022-12-11T00:56:55.786Z,3.38
2022-12-11T00:57:17.364Z,3.50
2022-12-11T00:57:39.006Z,3.30
2022-12-11T00:58:01.577Z,3.53
2022-12-11T00:58:23.322Z,3.00
2022-12-11T00:58:47.127Z,2.45
2022-12-11T00:59:09.875Z,2.65
2022-12-11T00:59:31.511Z,3.88
2022-12-11T00:59:53.091Z,3.42
2022-12-11T01:00:15.218Z,3.80
2022-12-11T01:00:38.462Z,3.47
2022-12-11T01:01:07.734Z,3.13
2022-12-11T01:01:29.422Z,3.72
2022-12-11T01:01:52.026Z,3.38
2022-12-11T01:02:13.618Z,2.95
2022-12-11T01:02:35.218Z,3.17
2022-12-11T01:02:57.010Z,3.03
2022-12-11T01:03:20.404Z,2.88
2022-12-11T01:03:42.114Z,3.95
2022-12-11T01:04:03.695Z,3.97
2022-12-11T01:04:25.367Z,3.72
2022-12-11T01:04:47.935Z,3.67
2022-12-11T01:05:09.824Z,3.05
2022-12-11T01:05:31.834Z,2.85
2022-12-11T01:05:54.665Z,3.88
2022-12-11T01:06:19.501Z,3.90
2022-12-11T01:06:41.092Z,3.83
2022-12-11T01:07:02.828Z,3.08
2022-12-11T01:07:24.711Z,2.90
2022-12-11T01:07:46.348Z,3.28
2022-12-11T01:08:08.281Z,3.67
2022-12-11T01:08:36.774Z,3.67
2022-12-11T01:09:19.006Z,3.33
2022-12-11T01:09:59.353Z,3.15
2022-12-11T01:10:24.340Z,3.90
2022-12-11T01:10:46.118Z,3.70
2022-12-11T01:11:10.281Z,3.20
2022-12-11T01:11:32.830Z,3.70
2022-12-11T01:11:54.406Z,3.35
2022-12-11T01:12:15.995Z,3.40
2022-12-11T01:12:37.634Z,3.63
2022-12-11T01:13:02.187Z,4.18
2022-12-11T01:13:23.810Z,3.80
2022-12-11T01:13:46.218Z,3.25
2022-12-11T01:14:08.179Z,3.40
2022-12-11T01:14:30.762Z,2.97
2022-12-11T01:14:52.414Z,2.72
2022-12-11T01:15:13.999Z,3.35
2022-12-11T01:15:41.707Z,3.35
2022-12-11T01:16:09.792Z,3.78
2022-12-11T01:16:31.475Z,4.55
2022-12-11T01:16:53.641Z,4.07
2022-12-11T01:17:15.363Z,3.78
2022-12-11T01:17:38.285Z,3.20
2022-12-11T01:18:00.094Z,3.53
2022-12-11T01:18:21.723Z,3.85
2022-12-11T01:18:45.172Z,3.58
2022-12-11T01:19:06.792Z,4.13
2022-12-11T01:19:28.481Z,4.63
2022-12-11T01:19:50.105Z,4.50
2022-12-11T01:20:12.502Z,3.63
2022-12-11T01:20:35.048Z,3.70
2022-12-11T01:20:56.666Z,3.45
2022-12-11T01:21:18.277Z,3.83
2022-12-11T01:21:41.101Z,4.32
2022-12-11T01:22:02.762Z,4.63
2022-12-11T01:22:24.362Z,3.95
2022-12-11T01:22:46.048Z,3.53
2022-12-11T01:23:08.763Z,4.00
2022-12-11T01:23:30.314Z,2.80
2022-12-11T01:23:52.210Z,3.08
2022-12-11T01:24:13.819Z,3.95
2022-12-11T01:24:36.772Z,4.72
2022-12-11T01:24:59.118Z,3.60
2022-12-11T01:25:21.181Z,3.85
2022-12-11T01:25:43.605Z,3.22
2022-12-11T01:26:08.230Z,3.17
2022-12-11T01:26:30.669Z,3.30
2022-12-11T01:26:52.370Z,3.40
2022-12-11T01:27:14.062Z,3.50
2022-12-11T01:27:36.033Z,3.17
2022-12-11T01:27:58.653Z,3.78
2022-12-11T01:28:20.295Z,3.17
2022-12-11T01:28:42.631Z,4.18
2022-12-11T01:29:04.354Z,4.43
2022-12-11T01:29:26.952Z,4.32
2022-12-11T01:29:49.543Z,3.72
2022-12-11T01:30:12.557Z,3.17
2022-12-11T01:30:34.504Z,3.10
2022-12-11T01:30:56.429Z,3.60
2022-12-11T01:31:22.159Z,3.95
2022-12-11T01:31:43.847Z,3.17
2022-12-11T01:32:05.450Z,3.53
2022-12-11T01:32:27.489Z,4.55
2022-12-11T01:32:49.161Z,3.38
2022-12-11T01:33:11.731Z,3.70
2022-12-11T01:33:33.328Z,3.40
2022-12-11T01:33:55.448Z,4.70
2022-12-11T01:34:17.058Z,4.30
2022-12-11T01:34:39.819Z,4.13
2022-12-11T01:35:03.358Z,3.63
2022-12-11T01:35:24.927Z,3.20
2022-12-11T01:35:46.499Z,3.33
2022-12-11T01:36:10.594Z,3.72
2022-12-11T01:36:32.272Z,3.25
2022-12-11T01:36:54.148Z,3.33
2022-12-11T01:37:16.835Z,3.25
2022-12-11T01:37:38.503Z,2.95
2022-12-11T01:38:00.729Z,2.92
2022-12-11T01:38:22.393Z,3.90
2022-12-11T01:38:45.366Z,3.30
2022-12-11T01:39:42.709Z,4.10
2022-12-11T01:40:06.801Z,3.65
2022-12-11T01:40:29.760Z,3.70
2022-12-11T01:40:51.545Z,4.05
2022-12-11T01:41:13.438Z,3.35
2022-12-11T01:41:35.024Z,3.92
2022-12-11T01:41:57.475Z,3.63
2022-12-11T01:42:22.080Z,2.85
2022-12-11T01:42:44.413Z,3.38
2022-12-11T01:43:06.078Z,3.50
2022-12-11T01:43:27.694Z,2.90
2022-12-11T01:44:01.378Z,3.13
2022-12-11T01:45:01.202Z,3.35
2022-12-11T01:45:46.840Z,3.50
2022-12-11T01:46:08.518Z,3.45
2022-12-11T01:46:33.894Z,3.13
2022-12-11T01:46:55.915Z,3.95
2022-12-11T01:47:17.688Z,4.03
2022-12-11T01:47:40.419Z,3.80
2022-12-11T01:48:06.502Z,3.80
2022-12-11T01:48:31.459Z,3.50
2022-12-11T01:48:54.988Z,3.58
2022-12-11T01:49:18.745Z,3.42
2022-12-11T01:49:41.874Z,3.83
2022-12-11T01:50:03.833Z,2.55
2022-12-11T01:50:26.630Z,2.75
2022-12-11T01:50:51.154Z,3.20
2022-12-11T01:51:13.069Z,2.97
2022-12-11T01:51:41.367Z,4.10
2022-12-11T01:52:08.220Z,3.25
2022-12-11T01:52:29.932Z,3.30
2022-12-11T01:52:52.190Z,3.05
2022-12-11T01:53:20.515Z,3.83
2022-12-11T01:53:46.399Z,4.07
2022-12-11T01:54:11.569Z,3.80
2022-12-11T01:54:34.410Z,3.80
2022-12-11T01:54:56.061Z,2.60
2022-12-11T01:55:20.001Z,3.00
2022-12-11T01:55:41.916Z,3.40
2022-12-11T01:56:04.704Z,3.30
2022-12-11T01:56:28.588Z,3.20
2022-12-11T01:56:52.954Z,3.42
2022-12-11T01:57:16.111Z,3.47
2022-12-11T01:57:40.302Z,3.58
2022-12-11T01:58:03.836Z,2.85
2022-12-11T01:58:29.457Z,2.78
2022-12-11T01:58:56.490Z,3.15
2022-12-11T01:59:22.149Z,3.22
2022-12-11T01:59:47.133Z,3.78
2022-12-11T02:00:09.995Z,3.10
2022-12-11T02:00:34.573Z,3.50
2022-12-11T02:00:58.083Z,3.80
2022-12-11T02:01:24.997Z,3.42
2022-12-11T02:01:54.201Z,3.17
2022-12-11T02:02:20.876Z,3.33
2022-12-11T02:02:43.604Z,2.97
2022-12-11T02:03:05.250Z,3.17
2022-12-11T02:03:27.195Z,3.67
2022-12-11T02:03:50.264Z,2.80
2022-12-11T02:04:14.032Z,3.10
2022-12-11T02:04:38.950Z,3.10
2022-12-11T02:05:02.336Z,2.75
2022-12-11T02:05:24.956Z,2.80
2022-12-11T02:05:46.719Z,2.70
2022-12-11T02:06:37.254Z,2.63
2022-12-11T02:07:00.029Z,2.80
2022-12-11T02:07:22.145Z,4.03
2022-12-11T02:07:48.336Z,4.53
2022-12-11T02:08:11.385Z,3.25
2022-12-11T02:08:34.336Z,2.80
2022-12-11T02:08:56.047Z,3.03
2022-12-11T02:09:22.534Z,3.40
2022-12-11T02:09:46.531Z,3.35
2022-12-11T02:10:09.935Z,3.20
2022-12-11T02:10:44.626Z,2.78
2022-12-11T02:11:15.918Z,2.92
2022-12-11T02:11:52.847Z,3.20
2022-12-11T02:12:20.821Z,3.65
2022-12-11T02:12:52.098Z,3.28
2022-12-11T02:13:18.315Z,3.17
2022-12-11T02:13:50.096Z,3.00
2022-12-11T02:14:20.138Z,3.05
2022-12-11T02:14:48.334Z,2.90
2022-12-11T02:15:15.334Z,3.25
2022-12-11T02:15:48.598Z,3.78
2022-12-11T02:16:18.609Z,2.72
2022-12-11T02:16:46.814Z,3.03
2022-12-11T02:17:14.670Z,3.33
2022-12-11T02:17:42.949Z,3.50
2022-12-11T02:18:16.937Z,2.78
2022-12-11T02:18:44.822Z,3.22
2022-12-11T02:19:19.112Z,3.80
2022-12-11T02:20:01.273Z,2.88
2022-12-11T02:20:26.230Z,3.00
2022-12-11T02:20:56.131Z,2.80
2022-12-11T02:21:24.212Z,3.40
2022-12-11T02:21:50.648Z,2.53
2022-12-11T02:22:21.561Z,2.72
2022-12-11T02:23:05.299Z,3.17
2022-12-11T02:24:01.069Z,3.70
2022-12-11T02:24:36.712Z,3.53
2022-12-11T02:25:10.944Z,4.45
2022-12-11T02:25:37.258Z,3.25
2022-12-11T02:26:13.187Z,2.53
2022-12-11T02:26:54.898Z,3.03
2022-12-11T02:27:34.646Z,2.47
2022-12-11T02:28:09.809Z,3.42
2022-12-11T02:28:36.381Z,3.10
2022-12-11T02:29:01.921Z,2.55
2022-12-11T02:29:29.011Z,3.55
2022-12-11T02:29:54.323Z,3.63
2022-12-11T02:30:17.112Z,3.53
2022-12-11T02:30:42.036Z,3.08
2022-12-11T02:31:08.665Z,3.53
2022-12-11T02:31:36.651Z,3.67
2022-12-11T02:32:02.902Z,3.17
2022-12-11T02:32:27.745Z,4.18
2022-12-11T02:32:55.534Z,3.65
2022-12-11T02:33:21.972Z,4.57
2022-12-11T02:33:50.330Z,4.40
2022-12-11T02:34:18.615Z,2.92
2022-12-11T02:34:45.911Z,2.97
2022-12-11T02:35:14.626Z,2.83
2022-12-11T02:35:40.597Z,3.67
2022-12-11T02:36:04.956Z,3.38
2022-12-11T02:36:33.250Z,3.65
2022-12-11T02:36:59.217Z,4.03
2022-12-11T02:37:24.726Z,3.28
2022-12-11T02:37:48.729Z,3.05
2022-12-11T02:38:16.250Z,3.13
2022-12-11T02:38:41.652Z,3.17
2022-12-11T02:39:05.897Z,3.42
2022-12-11T02:39:29.439Z,2.88
2022-12-11T02:39:54.582Z,3.25
2022-12-11T02:40:22.565Z,3.55
2022-12-11T02:40:46.939Z,3.47
2022-12-11T02:41:11.852Z,3.20
2022-12-11T02:41:34.078Z,3.35
2022-12-11T02:41:56.507Z,3.33
2022-12-11T02:42:21.016Z,3.88
2022-12-11T02:42:44.516Z,3.95
2022-12-11T02:43:12.957Z,3.30
2022-12-11T02:43:36.819Z,3.58
2022-12-11T02:44:00.761Z,3.22
2022-12-11T02:44:26.118Z,3.50
2022-12-11T02:44:49.616Z,3.42
2022-12-11T02:45:12.947Z,3.05
2022-12-11T02:45:37.097Z,2.63
2022-12-11T02:46:00.233Z,2.35
2022-12-11T02:46:23.160Z,2.97
2022-12-11T02:46:45.417Z,2.85
2022-12-11T02:47:12.180Z,2.38
2022-12-11T02:47:33.830Z,2.38
2022-12-11T02:47:58.787Z,2.95
2022-12-11T02:48:25.017Z,3.03
2022-12-11T02:48:50.149Z,4.00
2022-12-11T02:49:13.562Z,4.10
2022-12-11T02:49:35.894Z,3.92
2022-12-11T02:49:59.950Z,3.60
2022-12-11T02:50:24.402Z,3.55
2022-12-11T02:50:50.290Z,3.33
2022-12-11T02:51:16.458Z,3.28
2022-12-11T02:51:41.004Z,3.80
2022-12-11T02:52:07.187Z,3.53
2022-12-11T02:52:31.777Z,3.05
2022-12-11T02:52:57.458Z,3.00
2022-12-11T02:53:23.787Z,3.40
2022-12-11T02:53:46.613Z,2.90
2022-12-11T02:54:12.030Z,2.70
2022-12-11T02:54:37.956Z,3.10
2022-12-11T02:55:03.272Z,4.30
2022-12-11T02:55:28.579Z,3.28
2022-12-11T02:55:53.072Z,3.15
2022-12-11T02:56:21.380Z,3.15
2022-12-11T02:56:47.827Z,3.22
2022-12-11T02:57:14.572Z,2.78
2022-12-11T02:57:40.232Z,3.55
2022-12-11T02:58:08.055Z,3.72
2022-12-11T02:58:33.198Z,3.55
2022-12-11T02:59:00.518Z,4.43
2022-12-11T02:59:25.488Z,2.88
2022-12-11T02:59:48.133Z,3.38
2022-12-11T03:00:11.433Z,3.72
2022-12-11T03:00:33.078Z,3.50
2022-12-11T03:00:55.720Z,3.25
2022-12-11T03:01:17.883Z,4.18
2022-12-11T03:01:39.784Z,3.22
2022-12-11T03:02:03.187Z,3.17
2022-12-11T03:02:24.996Z,3.90
2022-12-11T03:02:46.774Z,3.35
2022-12-11T03:03:09.454Z,3.35
2022-12-11T03:03:31.165Z,3.50
2022-12-11T03:03:53.043Z,3.90
2022-12-11T03:04:14.734Z,3.47
2022-12-11T03:04:37.826Z,3.05
2022-12-11T03:04:59.810Z,3.55
2022-12-11T03:05:21.418Z,3.53
2022-12-11T03:05:43.129Z,3.25
2022-12-11T03:06:06.144Z,2.90
2022-12-11T03:06:34.462Z,3.35
2022-12-11T03:07:01.665Z,2.70
2022-12-11T03:07:28.525Z,3.50
2022-12-11T03:07:50.519Z,3.25
2022-12-11T03:08:12.400Z,3.45
2022-12-11T03:08:33.999Z,3.33
2022-12-11T03:08:56.627Z,3.42
2022-12-11T03:09:18.235Z,3.10
2022-12-11T03:09:40.458Z,3.55
2022-12-11T03:10:02.458Z,2.83
2022-12-11T03:10:26.048Z,2.72
2022-12-11T03:10:47.799Z,3.38
2022-12-11T03:11:10.603Z,3.15
2022-12-11T03:11:32.457Z,3.72
2022-12-11T03:11:54.421Z,3.53
2022-12-11T03:12:21.496Z,3.30
2022-12-11T03:12:50.478Z,3.03
2022-12-11T03:13:20.302Z,3.38
2022-12-11T03:13:44.572Z,2.88
2022-12-11T03:14:07.501Z,3.55
2022-12-11T03:14:29.112Z,3.85
2022-12-11T03:14:51.182Z,3.95
2022-12-11T03:15:17.602Z,3.15
2022-12-11T03:15:46.871Z,3.28
2022-12-11T03:16:17.444Z,3.30
2022-12-11T03:16:44.815Z,3.15
2022-12-11T03:17:14.818Z,3.05
2022-12-11T03:17:44.637Z,3.67
2022-12-11T03:18:13.819Z,3.10
2022-12-11T03:18:42.739Z,3.13
2022-12-11T03:19:16.153Z,3.35
2022-12-11T03:19:41.769Z,3.45
2022-12-11T03:20:12.553Z,3.97
2022-12-11T03:20:39.805Z,2.55
2022-12-11T03:21:06.988Z,2.85
2022-12-11T03:21:34.927Z,3.20
2022-12-11T03:22:04.345Z,4.10
2022-12-11T03:22:36.530Z,3.33
2022-12-11T03:23:04.359Z,3.78
2022-12-11T03:23:32.768Z,2.72
2022-12-11T03:24:03.624Z,3.67
2022-12-11T03:24:30.184Z,3.40
2022-12-11T03:24:55.157Z,3.45
2022-12-11T03:25:21.389Z,3.33
2022-12-11T03:25:50.912Z,3.97
2022-12-11T03:26:15.452Z,3.25
2022-12-11T03:26:42.197Z,3.03
2022-12-11T03:27:11.604Z,2.80
2022-12-11T03:27:37.741Z,3.28
2022-12-11T03:28:09.209Z,3.53
2022-12-11T03:28:37.147Z,3.67
2022-12-11T03:29:04.653Z,3.05
2022-12-11T03:29:31.721Z,3.28
2022-12-11T03:29:58.469Z,2.83
2022-12-11T03:30:24.055Z,4.25
2022-12-11T03:30:48.614Z,3.42
2022-12-11T03:31:14.319Z,2.88
2022-12-11T03:31:43.490Z,3.30
2022-12-11T03:32:09.622Z,3.00
2022-12-11T03:32:38.231Z,3.95
2022-12-11T03:33:08.372Z,3.00
2022-12-11T03:33:36.073Z,3.10
2022-12-11T03:34:02.848Z,4.18
2022-12-11T03:34:29.978Z,3.30
2022-12-11T03:34:58.440Z,3.15
2022-12-11T03:35:25.334Z,2.60
2022-12-11T03:35:51.357Z,3.05
2022-12-11T03:36:17.718Z,2.80
2022-12-11T03:36:40.211Z,2.50
2022-12-11T03:37:06.533Z,2.50
2022-12-11T03:37:33.011Z,3.28
2022-12-11T03:37:56.657Z,3.38
2022-12-11T03:38:24.109Z,3.28
2022-12-11T03:38:49.286Z,2.60
2022-12-11T03:39:16.683Z,3.30
2022-12-11T03:39:41.007Z,3.00
2022-12-11T03:40:08.562Z,2.40
2022-12-11T03:40:34.117Z,3.22
2022-12-11T03:41:00.682Z,3.10
2022-12-11T03:41:26.149Z,2.95
2022-12-11T03:41:51.691Z,2.75
2022-12-11T03:42:15.794Z,2.53
2022-12-11T03:42:40.417Z,2.72
2022-12-11T03:43:05.530Z,2.60
2022-12-11T03:43:30.583Z,3.00
2022-12-11T03:43:54.949Z,2.67
2022-12-11T03:44:20.346Z,3.92
2022-12-11T03:44:46.115Z,3.42
2022-12-11T03:45:10.325Z,2.58
2022-12-11T03:45:33.837Z,3.22
2022-12-11T03:45:56.994Z,2.65
2022-12-11T03:46:20.688Z,2.55
2022-12-11T03:46:45.250Z,2.63
2022-12-11T03:47:09.860Z,3.33
2022-12-11T03:47:32.513Z,3.17
2022-12-11T03:47:56.372Z,2.28
2022-12-11T03:48:21.736Z,2.45
2022-12-11T03:48:45.901Z,3.40
2022-12-11T03:49:15.405Z,3.80
2022-12-11T03:49:40.060Z,3.28
2022-12-11T03:50:04.874Z,3.35
2022-12-11T03:50:30.311Z,2.72
2022-12-11T03:50:52.607Z,2.45
2022-12-11T03:51:17.195Z,2.75
2022-12-11T03:51:40.743Z,3.50
2022-12-11T03:52:03.982Z,3.10
2022-12-11T03:52:27.337Z,3.38
2022-12-11T03:52:50.972Z,3.15
2022-12-11T03:53:13.791Z,2.83
2022-12-11T03:53:38.519Z,3.22
2022-12-11T03:54:00.821Z,3.22
2022-12-11T03:54:23.362Z,2.92
2022-12-11T03:54:50.693Z,3.15
2022-12-11T03:55:15.920Z,2.47
2022-12-11T03:55:39.570Z,3.45
2022-12-11T03:56:02.822Z,3.78
2022-12-11T03:56:29.555Z,2.70
2022-12-11T03:56:54.097Z,3.55
2022-12-11T03:57:21.509Z,3.58
2022-12-11T03:57:43.559Z,2.92
2022-12-11T03:58:06.503Z,2.90
2022-12-11T03:58:28.213Z,2.97
2022-12-11T03:58:49.985Z,2.83
2022-12-11T03:59:11.960Z,3.25
2022-12-11T03:59:36.194Z,2.95
2022-12-11T03:59:58.133Z,3.10
2022-12-11T04:00:20.814Z,3.10
2022-12-11T04:00:42.553Z,2.83
2022-12-11T04:01:09.418Z,2.70
2022-12-11T04:01:31.059Z,3.53
2022-12-11T04:01:52.847Z,3.25
2022-12-11T04:02:14.411Z,2.60
2022-12-11T04:02:36.050Z,2.88
2022-12-11T04:03:13.851Z,2.40
2022-12-11T04:03:36.911Z,3.05
2022-12-11T04:03:58.594Z,2.85
2022-12-11T04:04:20.533Z,3.08
2022-12-11T04:04:42.596Z,2.92
2022-12-11T04:05:05.716Z,4.35
2022-12-11T04:05:27.291Z,3.25
2022-12-11T04:05:50.820Z,2.70
2022-12-11T04:06:12.387Z,2.72
2022-12-11T04:06:34.911Z,3.38
2022-12-11T04:06:56.472Z,2.90
2022-12-11T04:07:18.077Z,2.28
2022-12-11T04:07:39.627Z,2.42
2022-12-11T04:08:03.354Z,3.15
2022-12-11T04:08:25.333Z,2.58
2022-12-11T04:08:47.051Z,2.65
2022-12-11T04:09:08.702Z,3.58
2022-12-11T04:09:30.295Z,4.13
2022-12-11T04:09:52.823Z,2.67
2022-12-11T04:10:14.516Z,2.95
2022-12-11T04:10:36.205Z,3.20
2022-12-11T04:11:12.749Z,2.75
2022-12-11T04:11:34.342Z,3.13
2022-12-11T04:11:56.886Z,3.60
2022-12-11T04:12:18.514Z,2.83
2022-12-11T04:12:40.098Z,2.60
2022-12-11T04:13:01.954Z,3.55
2022-12-11T04:13:23.602Z,3.40
2022-12-11T04:13:46.254Z,2.72
2022-12-11T04:14:28.522Z,2.72
2022-12-11T04:15:03.858Z,2.97
2022-12-11T04:15:25.433Z,3.10
2022-12-11T04:15:47.076Z,2.53
2022-12-11T04:16:09.122Z,2.50
2022-12-11T04:16:30.805Z,3.88
2022-12-11T04:16:53.065Z,3.83
2022-12-11T04:17:35.410Z,3.17
2022-12-11T04:18:15.601Z,2.65
2022-12-11T04:18:56.049Z,3.10
2022-12-11T04:19:37.988Z,2.53
2022-12-11T04:20:18.304Z,3.17
2022-12-11T04:20:58.607Z,3.20
2022-12-11T04:21:39.837Z,2.97
2022-12-11T04:22:20.082Z,2.90
2022-12-11T04:23:00.383Z,2.55
2022-12-11T04:23:40.718Z,2.92
2022-12-11T04:24:18.571Z,2.85
2022-12-11T04:24:40.351Z,3.60
2022-12-11T04:25:03.318Z,3.00
2022-12-11T04:25:24.975Z,3.08
2022-12-11T04:25:46.574Z,3.00
2022-12-11T04:26:11.004Z,2.72
2022-12-11T04:26:32.613Z,2.80
2022-12-11T04:26:54.241Z,2.75
2022-12-11T04:27:37.127Z,2.45
2022-12-11T04:27:59.719Z,2.85
2022-12-11T04:28:21.314Z,2.53
2022-12-11T04:28:44.387Z,2.67
2022-12-11T04:29:06.010Z,2.33
2022-12-11T04:29:28.613Z,2.47
2022-12-11T04:29:51.578Z,2.70
2022-12-11T04:30:16.645Z,2.13
2022-12-11T04:30:38.237Z,2.60
2022-12-11T04:31:01.208Z,3.70
2022-12-11T04:31:22.885Z,3.65
2022-12-11T04:31:45.707Z,2.72
2022-12-11T04:32:07.361Z,2.95
2022-12-11T04:32:28.946Z,3.20
2022-12-11T04:32:52.195Z,3.67
2022-12-11T04:33:13.829Z,2.97
2022-12-11T04:33:35.423Z,2.25
2022-12-11T04:33:57.028Z,2.70
2022-12-11T04:34:19.665Z,2.30
2022-12-11T04:34:41.231Z,1.85
2022-12-11T04:35:03.309Z,2.83
2022-12-11T04:35:24.915Z,2.70
2022-12-11T04:35:47.506Z,2.47
2022-12-11T04:36:10.849Z,1.98
2022-12-11T04:36:32.453Z,2.42
2022-12-11T04:36:54.061Z,2.10
2022-12-11T04:37:15.692Z,2.05
2022-12-11T04:37:39.349Z,3.08
2022-12-11T04:38:01.207Z,2.30
2022-12-11T04:38:22.785Z,2.55
2022-12-11T04:38:44.474Z,2.00
2022-12-11T04:39:07.305Z,1.65
2022-12-11T04:39:28.959Z,1.77
2022-12-11T04:39:50.590Z,2.05
2022-12-11T04:40:14.945Z,1.70
2022-12-11T04:40:36.579Z,2.00
2022-12-11T04:41:00.227Z,2.33
2022-12-11T04:41:22.321Z,2.35
2022-12-11T04:41:43.982Z,2.00
2022-12-11T04:42:05.695Z,1.50
2022-12-11T04:42:28.438Z,2.17
2022-12-11T04:42:50.174Z,2.42
2022-12-11T04:43:11.776Z,2.63
2022-12-11T04:43:33.655Z,2.67
2022-12-11T04:43:56.212Z,2.20
2022-12-11T04:44:17.823Z,1.60
2022-12-11T04:44:39.394Z,2.25
2022-12-11T04:45:02.547Z,3.25
2022-12-11T04:45:24.186Z,2.58
2022-12-11T04:45:46.747Z,2.70
2022-12-11T04:46:13.387Z,2.55
2022-12-11T04:46:35.473Z,2.17
2022-12-11T04:46:57.050Z,2.53
2022-12-11T04:47:18.687Z,2.38
2022-12-11T04:47:42.023Z,1.95
2022-12-11T04:48:03.926Z,2.75
2022-12-11T04:48:25.517Z,2.17
2022-12-11T04:48:51.205Z,1.80
2022-12-11T04:49:16.510Z,2.05
2022-12-11T04:49:38.130Z,2.72
2022-12-11T04:49:59.754Z,2.25
2022-12-11T04:50:21.583Z,1.95
2022-12-11T04:50:44.226Z,2.35
2022-12-11T04:51:06.723Z,2.45
2022-12-11T04:51:29.075Z,2.35
2022-12-11T04:51:50.737Z,2.03
2022-12-11T04:52:13.335Z,1.70
2022-12-11T04:52:35.006Z,1.83
2022-12-11T04:52:57.211Z,2.38
2022-12-11T04:53:18.885Z,2.10
2022-12-11T04:53:41.527Z,2.10
2022-12-11T04:54:03.206Z,2.05
2022-12-11T04:54:24.893Z,1.77
2022-12-11T04:54:46.518Z,2.28
2022-12-11T04:55:10.913Z,2.08
2022-12-11T04:55:32.595Z,1.95
2022-12-11T04:55:54.835Z,1.98
2022-12-11T04:56:16.876Z,2.10
2022-12-11T04:56:39.652Z,1.92
2022-12-11T04:57:01.219Z,1.70
2022-12-11T04:57:23.077Z,2.35
2022-12-11T04:57:44.626Z,1.95
2022-12-11T04:58:06.239Z,1.77
2022-12-11T04:58:29.315Z,2.13
2022-12-11T04:58:50.908Z,2.30
2022-12-11T04:59:12.558Z,2.08
2022-12-11T04:59:34.227Z,2.38
2022-12-11T04:59:56.768Z,2.53
2022-12-11T05:00:19.922Z,2.28
2022-12-11T05:00:41.846Z,2.35
2022-12-11T05:01:08.842Z,2.38
2022-12-11T05:01:30.487Z,2.25
2022-12-11T05:01:52.191Z,2.38
2022-12-11T05:02:13.972Z,2.17
2022-12-11T05:02:37.527Z,2.00
2022-12-11T05:02:59.144Z,1.60
2022-12-11T05:03:20.930Z,1.50
2022-12-11T05:03:42.915Z,2.15
2022-12-11T05:04:04.775Z,2.22
2022-12-11T05:04:31.660Z,2.28
2022-12-11T05:04:53.287Z,2.25
2022-12-11T05:05:14.978Z,1.63
2022-12-11T05:05:36.563Z,2.17
2022-12-11T05:05:59.172Z,2.63
2022-12-11T05:06:20.818Z,2.42
2022-12-11T05:06:42.421Z,2.00
2022-12-11T05:07:04.082Z,1.83
2022-12-11T05:07:26.805Z,2.22
2022-12-11T05:07:48.436Z,2.67
2022-12-11T05:08:10.161Z,2.00
2022-12-11T05:08:33.955Z,2.17
2022-12-11T05:08:56.673Z,1.70
2022-12-11T05:09:18.312Z,1.95
2022-12-11T05:09:39.847Z,2.22
2022-12-11T05:10:01.545Z,2.20
2022-12-11T05:10:24.174Z,2.05
2022-12-11T05:10:54.886Z,1.95
2022-12-11T05:11:17.395Z,2.08
2022-12-11T05:11:39.200Z,1.90
2022-12-11T05:12:02.275Z,2.42
2022-12-11T05:12:23.932Z,2.10
2022-12-11T05:12:45.976Z,1.60
2022-12-11T05:13:07.617Z,2.08
2022-12-11T05:13:29.885Z,2.05
2022-12-11T05:13:53.138Z,2.25
2022-12-11T05:14:14.784Z,1.67
2022-12-11T05:14:36.390Z,1.85
2022-12-11T05:14:58.069Z,2.03
2022-12-11T05:15:21.971Z,2.20
2022-12-11T05:15:43.667Z,2.38
2022-12-11T05:16:06.137Z,1.98
2022-12-11T05:16:27.791Z,2.05
2022-12-11T05:16:50.500Z,2.03
2022-12-11T05:17:12.141Z,2.78
2022-12-11T05:17:34.022Z,2.47
2022-12-11T05:17:55.593Z,2.42
2022-12-11T05:18:18.162Z,2.20
2022-12-11T05:18:39.814Z,1.38
2022-12-11T05:19:01.450Z,1.92
2022-12-11T05:19:23.029Z,2.30
2022-12-11T05:19:44.650Z,2.80
2022-12-11T05:20:09.246Z,2.25
2022-12-11T05:20:30.803Z,2.08
2022-12-11T05:20:56.233Z,2.05
2022-12-11T05:21:18.789Z,1.92
2022-12-11T05:21:40.438Z,2.35
2022-12-11T05:22:02.006Z,2.25
2022-12-11T05:22:23.542Z,1.73
2022-12-11T05:22:45.169Z,1.80